createdAt,value
2016-09-30T00:00:30.938Z,0
2016-09-30T00:01:32.211Z,0
2016-09-30T00:02:31.514Z,0
2016-09-30T00:03:31.260Z,0
2016-09-30T00:04:30.647Z,0
2016-09-30T00:05:32.107Z,0
2016-09-30T00:06:32.134Z,0
2016-09-30T00:07:31.911Z,0
2016-09-30T00:08:32.212Z,0
2016-09-30T00:09:32.188Z,0
2016-09-30T00:10:31.585Z,0
2016-09-30T00:11:31.447Z,0
2016-09-30T00:12:31.045Z,0
2016-09-30T00:13:32.170Z,0
2016-09-30T00:14:31.700Z,0
2016-09-30T00:15:33.189Z,0
2016-09-30T00:16:31.808Z,0
2016-09-30T00:17:31.819Z,0
2016-09-30T00:18:33.420Z,0
2016-09-30T00:19:30.713Z,0
2016-09-30T00:20:33.241Z,0
2016-09-30T00:21:31.753Z,0
2016-09-30T00:22:32.787Z,0
2016-09-30T00:23:33.040Z,0
2016-09-30T00:24:32.544Z,0
2016-09-30T00:25:32.130Z,0
2016-09-30T00:26:32.714Z,0
2016-09-30T00:27:32.201Z,0
2016-09-30T00:28:32.610Z,0
2016-09-30T00:29:31.748Z,0
2016-09-30T00:30:32.464Z,0
2016-09-30T00:31:31.880Z,0
2016-09-30T00:32:33.863Z,0
2016-09-30T00:33:34.090Z,0
2016-09-30T00:34:32.908Z,0
2016-09-30T00:35:31.889Z,0
2016-09-30T00:36:32.606Z,0
2016-09-30T00:37:32.818Z,0
2016-09-30T00:38:32.096Z,0
2016-09-30T00:39:33.156Z,0
2016-09-30T00:40:33.381Z,0
2016-09-30T00:41:32.985Z,0
2016-09-30T00:42:31.966Z,0
2016-09-30T00:43:31.676Z,0
2016-09-30T00:44:31.776Z,0
2016-09-30T00:45:32.722Z,0
2016-09-30T00:46:32.103Z,0
2016-09-30T00:47:32.086Z,0
2016-09-30T00:48:32.320Z,0
2016-09-30T00:49:32.257Z,0
2016-09-30T00:50:32.669Z,0
2016-09-30T00:51:31.970Z,0
2016-09-30T00:52:32.677Z,0
2016-09-30T00:53:32.786Z,0
2016-09-30T00:54:32.962Z,0
2016-09-30T00:55:33.039Z,0
2016-09-30T00:56:32.799Z,0
2016-09-30T00:57:31.702Z,0
2016-09-30T00:58:32.758Z,0
2016-09-30T00:59:34.340Z,0
2016-09-30T01:00:32.976Z,0
2016-09-30T01:01:33.539Z,0
2016-09-30T01:02:32.335Z,0
2016-09-30T01:03:33.112Z,0
2016-09-30T01:04:32.941Z,0
2016-09-30T01:05:33.156Z,0
2016-09-30T01:06:32.690Z,0
2016-09-30T01:07:32.700Z,0
2016-09-30T01:08:33.459Z,0
2016-09-30T01:09:32.817Z,0
2016-09-30T01:10:34.845Z,0
2016-09-30T01:11:34.766Z,0
2016-09-30T01:12:32.656Z,0
2016-09-30T01:13:32.604Z,0
2016-09-30T01:14:32.606Z,0
2016-09-30T01:15:34.330Z,0
2016-09-30T01:16:32.545Z,0
2016-09-30T01:17:33.013Z,0
2016-09-30T01:18:34.156Z,0
2016-09-30T01:19:34.035Z,0
2016-09-30T01:20:33.482Z,0
2016-09-30T01:21:33.269Z,0
2016-09-30T01:22:32.759Z,0
2016-09-30T01:23:33.258Z,0
2016-09-30T01:24:34.204Z,0
2016-09-30T01:25:33.126Z,0
2016-09-30T01:26:32.427Z,0
2016-09-30T01:27:33.235Z,0
2016-09-30T01:28:33.442Z,0
2016-09-30T01:29:34.032Z,0
2016-09-30T01:30:34.260Z,0
2016-09-30T01:31:34.864Z,0
2016-09-30T01:32:34.037Z,0
2016-09-30T01:33:33.701Z,0
2016-09-30T01:34:33.994Z,0
2016-09-30T01:35:33.424Z,0
2016-09-30T01:36:33.345Z,0
2016-09-30T01:37:32.823Z,0
2016-09-30T01:38:33.453Z,0
2016-09-30T01:39:34.284Z,0
2016-09-30T01:40:33.386Z,0
2016-09-30T01:41:33.232Z,0
2016-09-30T01:42:33.926Z,0
2016-09-30T01:43:34.052Z,0
2016-09-30T01:44:33.115Z,0
2016-09-30T01:45:33.284Z,0
2016-09-30T01:46:34.078Z,0
2016-09-30T01:47:34.293Z,0
2016-09-30T01:48:34.437Z,0
2016-09-30T01:49:33.891Z,0
2016-09-30T01:50:33.266Z,0
2016-09-30T01:51:33.271Z,0
2016-09-30T01:52:33.626Z,0
2016-09-30T01:53:33.774Z,0
2016-09-30T01:54:33.471Z,0
2016-09-30T01:55:34.291Z,0
2016-09-30T01:56:33.302Z,0
2016-09-30T01:57:34.203Z,0
2016-09-30T01:58:34.322Z,0
2016-09-30T01:59:34.086Z,0
2016-09-30T02:00:34.072Z,0
2016-09-30T02:01:33.646Z,0
2016-09-30T02:02:34.499Z,0
2016-09-30T02:03:34.232Z,0
2016-09-30T02:04:33.944Z,0
2016-09-30T02:05:34.852Z,0
2016-09-30T02:06:34.399Z,0
2016-09-30T02:07:34.151Z,0
2016-09-30T02:08:34.491Z,0
2016-09-30T02:09:34.388Z,0
2016-09-30T02:10:34.312Z,0
2016-09-30T02:11:34.369Z,0
2016-09-30T02:12:34.364Z,0
2016-09-30T02:13:35.322Z,0
2016-09-30T02:14:35.135Z,0
2016-09-30T02:15:35.342Z,0
2016-09-30T02:16:33.332Z,0
2016-09-30T02:17:34.698Z,0
2016-09-30T02:18:34.410Z,0
2016-09-30T02:19:35.551Z,0
2016-09-30T02:20:34.589Z,0
2016-09-30T02:21:33.977Z,0
2016-09-30T02:22:34.300Z,0
2016-09-30T02:23:34.200Z,0
2016-09-30T02:24:34.580Z,0
2016-09-30T02:25:34.430Z,0
2016-09-30T02:26:35.679Z,0
2016-09-30T02:27:35.061Z,0
2016-09-30T02:28:34.934Z,0
2016-09-30T02:29:35.011Z,0
2016-09-30T02:30:34.378Z,0
2016-09-30T02:31:34.340Z,0
2016-09-30T02:32:34.733Z,0
2016-09-30T02:33:35.019Z,0
2016-09-30T02:34:34.351Z,0
2016-09-30T02:35:34.679Z,0
2016-09-30T02:36:34.631Z,0
2016-09-30T02:37:33.968Z,0
2016-09-30T02:38:35.706Z,0
2016-09-30T02:39:34.924Z,0
2016-09-30T02:40:35.006Z,0
2016-09-30T02:41:36.450Z,0
2016-09-30T02:42:34.740Z,0
2016-09-30T02:43:34.963Z,0
2016-09-30T02:44:35.565Z,0
2016-09-30T02:45:35.028Z,0
2016-09-30T02:46:34.207Z,0
2016-09-30T02:47:35.528Z,0
2016-09-30T02:48:35.389Z,0
2016-09-30T02:49:35.560Z,0
2016-09-30T02:50:36.183Z,0
2016-09-30T02:51:35.387Z,0
2016-09-30T02:52:34.482Z,0
2016-09-30T02:53:35.291Z,0
2016-09-30T02:54:34.454Z,0
2016-09-30T02:55:37.465Z,0
2016-09-30T02:56:35.323Z,0
2016-09-30T02:57:35.136Z,0
2016-09-30T02:58:34.741Z,0
2016-09-30T02:59:35.318Z,0
2016-09-30T03:00:35.827Z,0
2016-09-30T03:01:34.904Z,0
2016-09-30T03:02:35.196Z,0
2016-09-30T03:03:34.891Z,0
2016-09-30T03:04:35.947Z,0
2016-09-30T03:05:35.845Z,0
2016-09-30T03:06:36.112Z,0
2016-09-30T03:07:34.236Z,0
2016-09-30T03:08:36.373Z,0
2016-09-30T03:09:36.736Z,0
2016-09-30T03:10:35.944Z,0
2016-09-30T03:11:35.931Z,0
2016-09-30T03:12:35.691Z,0
2016-09-30T03:13:35.154Z,0
2016-09-30T03:14:35.921Z,0
2016-09-30T03:15:35.527Z,0
2016-09-30T03:16:35.715Z,0
2016-09-30T03:17:37.078Z,0
2016-09-30T03:18:35.076Z,0
2016-09-30T03:19:36.434Z,0
2016-09-30T03:20:35.114Z,0
2016-09-30T03:21:34.675Z,0
2016-09-30T03:22:35.479Z,0
2016-09-30T03:23:34.665Z,0
2016-09-30T03:24:35.826Z,0
2016-09-30T03:25:34.757Z,0
2016-09-30T03:26:36.564Z,0
2016-09-30T03:27:35.973Z,0
2016-09-30T03:28:35.035Z,0
2016-09-30T03:29:35.788Z,0
2016-09-30T03:30:35.508Z,0
2016-09-30T03:31:35.635Z,0
2016-09-30T03:32:35.671Z,0
2016-09-30T03:33:35.713Z,0
2016-09-30T03:34:36.744Z,0
2016-09-30T03:35:35.830Z,0
2016-09-30T03:36:36.060Z,0
2016-09-30T03:37:35.677Z,0
2016-09-30T03:38:36.090Z,0
2016-09-30T03:39:37.446Z,0
2016-09-30T03:40:35.958Z,0
2016-09-30T03:41:35.602Z,0
2016-09-30T03:42:35.393Z,0
2016-09-30T03:43:36.648Z,0
2016-09-30T03:44:35.508Z,0
2016-09-30T03:45:36.430Z,0
2016-09-30T03:46:35.327Z,0
2016-09-30T03:47:36.799Z,0
2016-09-30T03:48:36.317Z,0
2016-09-30T03:49:35.955Z,0
2016-09-30T03:50:35.752Z,0
2016-09-30T03:51:35.481Z,0
2016-09-30T03:52:36.458Z,0
2016-09-30T03:53:36.663Z,0
2016-09-30T03:54:36.921Z,0
2016-09-30T03:55:36.703Z,0
2016-09-30T03:56:37.438Z,0
2016-09-30T03:57:36.892Z,0
2016-09-30T03:58:36.309Z,0
2016-09-30T03:59:37.254Z,0
2016-09-30T04:00:36.623Z,0
2016-09-30T04:01:36.989Z,0
2016-09-30T04:02:36.065Z,0
2016-09-30T04:03:37.281Z,0
2016-09-30T04:04:36.119Z,0
2016-09-30T04:05:36.985Z,0
2016-09-30T04:06:36.209Z,0
2016-09-30T04:07:36.996Z,0
2016-09-30T04:08:37.187Z,0
2016-09-30T04:09:36.438Z,0
2016-09-30T04:10:37.095Z,0
2016-09-30T04:11:36.665Z,0
2016-09-30T04:12:37.141Z,0
2016-09-30T04:13:36.663Z,0
2016-09-30T04:14:34.825Z,0
2016-09-30T04:15:35.612Z,0
2016-09-30T04:16:36.905Z,0
2016-09-30T04:17:36.894Z,0
2016-09-30T04:18:37.457Z,0
2016-09-30T04:19:36.938Z,0
2016-09-30T04:20:37.029Z,0
2016-09-30T04:21:38.444Z,0
2016-09-30T04:22:37.228Z,0
2016-09-30T04:23:38.357Z,0
2016-09-30T04:24:36.535Z,0
2016-09-30T04:25:37.162Z,0
2016-09-30T04:26:35.960Z,0
2016-09-30T04:27:37.077Z,0
2016-09-30T04:28:37.857Z,0
2016-09-30T04:29:38.172Z,0
2016-09-30T04:30:37.604Z,0
2016-09-30T04:31:38.036Z,0
2016-09-30T04:32:37.481Z,0
2016-09-30T04:33:37.812Z,0
2016-09-30T04:34:37.495Z,0
2016-09-30T04:35:37.789Z,0
2016-09-30T04:36:38.270Z,0
2016-09-30T04:37:37.395Z,0
2016-09-30T04:38:39.164Z,0
2016-09-30T04:39:37.793Z,0
2016-09-30T04:40:37.603Z,0
2016-09-30T04:41:37.171Z,0
2016-09-30T04:42:37.165Z,0
2016-09-30T04:43:37.614Z,0
2016-09-30T04:44:37.815Z,0
2016-09-30T04:45:38.399Z,0
2016-09-30T04:46:37.171Z,0
2016-09-30T04:47:37.107Z,0
2016-09-30T04:48:37.367Z,0
2016-09-30T04:49:38.381Z,0
2016-09-30T04:50:37.818Z,0
2016-09-30T04:51:37.013Z,0
2016-09-30T04:52:37.880Z,0
2016-09-30T04:53:37.154Z,0
2016-09-30T04:54:38.170Z,4
2016-09-30T04:55:37.252Z,4
2016-09-30T04:56:37.729Z,0
2016-09-30T04:57:37.668Z,4
2016-09-30T04:58:36.716Z,4
2016-09-30T04:59:38.219Z,8
2016-09-30T05:00:38.048Z,8
2016-09-30T05:01:37.504Z,8
2016-09-30T05:02:37.287Z,12
2016-09-30T05:03:37.441Z,12
2016-09-30T05:04:36.506Z,16
2016-09-30T05:05:38.347Z,24
2016-09-30T05:06:37.771Z,24
2016-09-30T05:07:38.479Z,32
2016-09-30T05:08:37.260Z,36
2016-09-30T05:09:39.003Z,40
2016-09-30T05:10:37.748Z,44
2016-09-30T05:11:39.585Z,52
2016-09-30T05:12:38.049Z,64
2016-09-30T05:13:37.649Z,76
2016-09-30T05:14:37.409Z,92
2016-09-30T05:15:36.845Z,100
2016-09-30T05:16:37.926Z,108
2016-09-30T05:17:38.002Z,120
2016-09-30T05:18:37.820Z,140
2016-09-30T05:19:37.402Z,180
2016-09-30T05:20:37.992Z,236
2016-09-30T05:21:38.722Z,308
2016-09-30T05:22:39.322Z,384
2016-09-30T05:23:39.619Z,444
2016-09-30T05:24:38.316Z,496
2016-09-30T05:25:38.066Z,532
2016-09-30T05:26:38.570Z,548
2016-09-30T05:27:37.461Z,552
2016-09-30T05:28:38.687Z,556
2016-09-30T05:29:39.909Z,584
2016-09-30T05:30:41.725Z,640
2016-09-30T05:31:41.610Z,700
2016-09-30T05:32:39.356Z,756
2016-09-30T05:33:39.861Z,840
2016-09-30T05:34:38.857Z,964
2016-09-30T05:35:38.872Z,1152
2016-09-30T05:36:42.324Z,1344
2016-09-30T05:37:39.833Z,1416
2016-09-30T05:38:39.146Z,1412
2016-09-30T05:39:40.307Z,1432
2016-09-30T05:40:40.369Z,1456
2016-09-30T05:41:40.659Z,1444
2016-09-30T05:42:39.659Z,1392
2016-09-30T05:43:43.528Z,1380
2016-09-30T05:44:40.963Z,1396
2016-09-30T05:45:39.722Z,1452
2016-09-30T05:46:40.808Z,1520
2016-09-30T05:47:40.587Z,1612
2016-09-30T05:48:38.541Z,1736
2016-09-30T05:49:39.816Z,1884
2016-09-30T05:50:38.271Z,2020
2016-09-30T05:51:38.996Z,2164
2016-09-30T05:52:38.715Z,2276
2016-09-30T05:53:38.607Z,2316
2016-09-30T05:54:39.339Z,2248
2016-09-30T05:55:38.430Z,2148
2016-09-30T05:56:38.987Z,2136
2016-09-30T05:57:40.464Z,2212
2016-09-30T05:58:38.392Z,2260
2016-09-30T05:59:39.537Z,2324
2016-09-30T06:00:38.302Z,2348
2016-09-30T06:01:38.518Z,2408
2016-09-30T06:02:40.057Z,2484
2016-09-30T06:03:38.123Z,2532
2016-09-30T06:04:39.046Z,2632
2016-09-30T06:05:38.287Z,2756
2016-09-30T06:06:38.580Z,2776
2016-09-30T06:07:38.571Z,2724
2016-09-30T06:08:38.969Z,2760
2016-09-30T06:09:39.027Z,2908
2016-09-30T06:10:39.047Z,3084
2016-09-30T06:11:40.380Z,3212
2016-09-30T06:12:39.447Z,3228
2016-09-30T06:13:40.474Z,3188
2016-09-30T06:14:40.043Z,3172
2016-09-30T06:15:39.456Z,3172
2016-09-30T06:16:37.698Z,3192
2016-09-30T06:17:37.975Z,3264
2016-09-30T06:18:37.707Z,3316
2016-09-30T06:19:37.664Z,3360
2016-09-30T06:20:37.373Z,3388
2016-09-30T06:21:37.396Z,3460
2016-09-30T06:22:37.774Z,3532
2016-09-30T06:23:37.747Z,3544
2016-09-30T06:24:37.487Z,3496
2016-09-30T06:25:37.493Z,3488
2016-09-30T06:26:37.474Z,3704
2016-09-30T06:27:37.852Z,4000
2016-09-30T06:28:38.653Z,4300
2016-09-30T06:29:38.431Z,4548
2016-09-30T06:30:38.859Z,4700
2016-09-30T06:31:38.249Z,4780
2016-09-30T06:32:38.828Z,4760
2016-09-30T06:33:38.774Z,4892
2016-09-30T06:34:38.995Z,5284
2016-09-30T06:35:39.037Z,5680
2016-09-30T06:36:39.225Z,6220
2016-09-30T06:37:40.163Z,7076
2016-09-30T06:38:39.799Z,8188
2016-09-30T06:39:39.733Z,8680
2016-09-30T06:40:39.669Z,8336
2016-09-30T06:41:39.307Z,8056
2016-09-30T06:42:39.960Z,8412
2016-09-30T06:43:39.716Z,9004
2016-09-30T06:44:39.834Z,9580
2016-09-30T06:45:40.331Z,9980
2016-09-30T06:46:39.806Z,10364
2016-09-30T06:47:40.456Z,10636
2016-09-30T06:48:39.202Z,10436
2016-09-30T06:49:39.820Z,10156
2016-09-30T06:50:39.962Z,9972
2016-09-30T06:51:41.606Z,9768
2016-09-30T06:52:40.163Z,9692
2016-09-30T06:53:40.693Z,9676
2016-09-30T06:54:38.981Z,9832
2016-09-30T06:55:40.731Z,10260
2016-09-30T06:56:41.175Z,10820
2016-09-30T06:57:40.412Z,11400
2016-09-30T06:58:39.566Z,11924
2016-09-30T06:59:40.588Z,12344
2016-09-30T07:00:40.167Z,12580
2016-09-30T07:01:41.613Z,13028
2016-09-30T07:02:40.662Z,13476
2016-09-30T07:03:41.223Z,13924
2016-09-30T07:04:40.522Z,14316
2016-09-30T07:05:39.761Z,14692
2016-09-30T07:06:40.387Z,14364
2016-09-30T07:07:41.268Z,13948
2016-09-30T07:08:41.069Z,13304
2016-09-30T07:09:40.090Z,12548
2016-09-30T07:10:40.609Z,11760
2016-09-30T07:11:40.380Z,11680
2016-09-30T07:12:40.045Z,11568
2016-09-30T07:13:40.990Z,11408
2016-09-30T07:14:40.575Z,11624
2016-09-30T07:15:40.584Z,12284
2016-09-30T07:16:40.306Z,11256
2016-09-30T07:17:40.252Z,11092
2016-09-30T07:18:41.057Z,11036
2016-09-30T07:19:40.967Z,11020
2016-09-30T07:20:40.865Z,12200
2016-09-30T07:21:40.645Z,12784
2016-09-30T07:22:41.515Z,11500
2016-09-30T07:23:41.717Z,11168
2016-09-30T07:24:40.197Z,11016
2016-09-30T07:25:42.137Z,10332
2016-09-30T07:26:41.793Z,11288
2016-09-30T07:27:40.538Z,11452
2016-09-30T07:28:40.962Z,11684
2016-09-30T07:29:40.601Z,11980
2016-09-30T07:30:41.233Z,11540
2016-09-30T07:31:41.991Z,11344
2016-09-30T07:32:42.009Z,12588
2016-09-30T07:33:41.427Z,12468
2016-09-30T07:34:41.564Z,14376
2016-09-30T07:35:40.755Z,15604
2016-09-30T07:36:41.550Z,15428
2016-09-30T07:37:42.441Z,16768
2016-09-30T07:38:40.534Z,17792
2016-09-30T07:39:41.238Z,16480
2016-09-30T07:40:41.902Z,16672
2016-09-30T07:41:41.628Z,18688
2016-09-30T07:42:40.448Z,20320
2016-09-30T07:43:41.329Z,17184
2016-09-30T07:44:41.338Z,16448
2016-09-30T07:45:40.591Z,18144
2016-09-30T07:46:41.756Z,17472
2016-09-30T07:47:40.756Z,15180
2016-09-30T07:48:41.567Z,12908
2016-09-30T07:49:41.542Z,12512
2016-09-30T07:50:42.176Z,12892
2016-09-30T07:51:42.621Z,12312
2016-09-30T07:52:40.985Z,12216
2016-09-30T07:53:40.968Z,13224
2016-09-30T07:54:40.647Z,14300
2016-09-30T07:55:40.696Z,15536
2016-09-30T07:56:41.684Z,16768
2016-09-30T07:57:41.446Z,17536
2016-09-30T07:58:40.920Z,17792
2016-09-30T07:59:41.541Z,17952
2016-09-30T08:00:41.916Z,17344
2016-09-30T08:01:42.453Z,16544
2016-09-30T08:02:41.905Z,15524
2016-09-30T08:03:40.422Z,14880
2016-09-30T08:04:42.259Z,13576
2016-09-30T08:05:41.426Z,11984
2016-09-30T08:06:42.362Z,10788
2016-09-30T08:07:40.982Z,10756
2016-09-30T08:08:41.448Z,11472
2016-09-30T08:09:42.350Z,11796
2016-09-30T08:10:41.272Z,12040
2016-09-30T08:11:42.542Z,12880
2016-09-30T08:12:41.831Z,14872
2016-09-30T08:13:43.335Z,16992
2016-09-30T08:14:42.317Z,17824
2016-09-30T08:15:42.826Z,17280
2016-09-30T08:16:41.850Z,17120
2016-09-30T08:17:42.362Z,18080
2016-09-30T08:18:40.813Z,19840
2016-09-30T08:19:43.308Z,21920
2016-09-30T08:20:42.637Z,21664
2016-09-30T08:21:42.996Z,21184
2016-09-30T08:22:42.241Z,19776
2016-09-30T08:23:42.856Z,18688
2016-09-30T08:24:42.689Z,18368
2016-09-30T08:25:43.458Z,18240
2016-09-30T08:26:43.049Z,17536
2016-09-30T08:27:41.773Z,16156
2016-09-30T08:28:42.347Z,15020
2016-09-30T08:29:42.658Z,13692
2016-09-30T08:30:43.196Z,14268
2016-09-30T08:31:42.184Z,14684
2016-09-30T08:32:42.018Z,14076
2016-09-30T08:33:42.764Z,13872
2016-09-30T08:34:41.401Z,14512
2016-09-30T08:35:41.565Z,15820
2016-09-30T08:36:41.738Z,16800
2016-09-30T08:37:43.742Z,17024
2016-09-30T08:38:42.679Z,16388
2016-09-30T08:39:42.325Z,15688
2016-09-30T08:40:43.188Z,15216
2016-09-30T08:41:42.280Z,15464
2016-09-30T08:42:42.580Z,16044
2016-09-30T08:43:41.863Z,17152
2016-09-30T08:44:42.600Z,17600
2016-09-30T08:45:43.753Z,17952
2016-09-30T08:46:43.002Z,18368
2016-09-30T08:47:42.532Z,18656
2016-09-30T08:48:42.524Z,18784
2016-09-30T08:49:42.727Z,18912
2016-09-30T08:50:42.588Z,18880
2016-09-30T08:51:42.707Z,17760
2016-09-30T08:52:42.392Z,16896
2016-09-30T08:53:42.346Z,16196
2016-09-30T08:54:42.874Z,16800
2016-09-30T08:55:42.657Z,18656
2016-09-30T08:56:43.112Z,20544
2016-09-30T08:57:43.655Z,21600
2016-09-30T08:58:42.857Z,22528
2016-09-30T08:59:43.086Z,23680
2016-09-30T09:00:42.650Z,24416
2016-09-30T09:01:43.031Z,25120
2016-09-30T09:02:43.066Z,26112
2016-09-30T09:03:43.059Z,26528
2016-09-30T09:04:43.255Z,25152
2016-09-30T09:05:43.214Z,27552
2016-09-30T09:06:42.884Z,26240
2016-09-30T09:07:43.445Z,28128
2016-09-30T09:08:43.540Z,25792
2016-09-30T09:09:43.355Z,23392
2016-09-30T09:10:43.541Z,24032
2016-09-30T09:11:44.033Z,23968
2016-09-30T09:12:42.524Z,22016
2016-09-30T09:13:42.839Z,20480
2016-09-30T09:14:42.139Z,20832
2016-09-30T09:15:43.287Z,23168
2016-09-30T09:16:43.111Z,25696
2016-09-30T09:17:42.488Z,25632
2016-09-30T09:18:43.557Z,22272
2016-09-30T09:19:43.562Z,23456
2016-09-30T09:20:41.809Z,23648
2016-09-30T09:21:42.649Z,25056
2016-09-30T09:22:42.842Z,24096
2016-09-30T09:23:42.736Z,26848
2016-09-30T09:24:43.000Z,24896
2016-09-30T09:25:42.327Z,25952
2016-09-30T09:26:43.428Z,24064
2016-09-30T09:27:43.497Z,28672
2016-09-30T09:28:44.138Z,29472
2016-09-30T09:29:43.327Z,28576
2016-09-30T09:30:43.743Z,27712
2016-09-30T09:31:43.663Z,27328
2016-09-30T09:32:43.481Z,25760
2016-09-30T09:33:44.536Z,25824
2016-09-30T09:34:43.597Z,24608
2016-09-30T09:35:43.624Z,25376
2016-09-30T09:36:44.084Z,24832
2016-09-30T09:37:43.652Z,25024
2016-09-30T09:38:44.061Z,25248
2016-09-30T09:39:43.823Z,25856
2016-09-30T09:40:42.728Z,25536
2016-09-30T09:41:44.229Z,25344
2016-09-30T09:42:44.418Z,24768
2016-09-30T09:43:43.080Z,23360
2016-09-30T09:44:42.954Z,23936
2016-09-30T09:45:44.299Z,23680
2016-09-30T09:46:43.078Z,23296
2016-09-30T09:47:43.856Z,23008
2016-09-30T09:48:43.865Z,22944
2016-09-30T09:49:44.802Z,22432
2016-09-30T09:50:43.539Z,23040
2016-09-30T09:51:43.369Z,22304
2016-09-30T09:52:43.913Z,21376
2016-09-30T09:53:45.695Z,20672
2016-09-30T09:54:43.936Z,20128
2016-09-30T09:55:43.901Z,21248
2016-09-30T09:56:45.034Z,20576
2016-09-30T09:57:43.418Z,19328
2016-09-30T09:58:43.860Z,18112
2016-09-30T09:59:43.821Z,19136
2016-09-30T10:00:45.320Z,17696
2016-09-30T10:01:43.867Z,18240
2016-09-30T10:02:44.001Z,17472
2016-09-30T10:03:44.009Z,17760
2016-09-30T10:04:45.006Z,15272
2016-09-30T10:05:46.138Z,14244
2016-09-30T10:06:44.979Z,13652
2016-09-30T10:07:44.333Z,13320
2016-09-30T10:08:45.729Z,12424
2016-09-30T10:09:45.494Z,13916
2016-09-30T10:10:44.208Z,14012
2016-09-30T10:11:45.253Z,14612
2016-09-30T10:12:45.604Z,15260
2016-09-30T10:13:46.268Z,15676
2016-09-30T10:14:45.267Z,16588
2016-09-30T10:15:45.067Z,16808
2016-09-30T10:16:44.821Z,17664
2016-09-30T10:17:45.239Z,17600
2016-09-30T10:18:44.951Z,17024
2016-09-30T10:19:44.852Z,16420
2016-09-30T10:20:45.211Z,17440
2016-09-30T10:21:45.451Z,17440
2016-09-30T10:22:45.868Z,17216
2016-09-30T10:23:44.627Z,16896
2016-09-30T10:24:45.621Z,16624
2016-09-30T10:25:44.518Z,16308
2016-09-30T10:26:44.464Z,15824
2016-09-30T10:27:44.609Z,15408
2016-09-30T10:28:45.175Z,15624
2016-09-30T10:29:45.172Z,15676
2016-09-30T10:30:44.622Z,14548
2016-09-30T10:31:45.189Z,14392
2016-09-30T10:32:45.686Z,13936
2016-09-30T10:33:44.812Z,14348
2016-09-30T10:34:45.039Z,15036
2016-09-30T10:35:44.899Z,16104
2016-09-30T10:36:44.875Z,17504
2016-09-30T10:37:45.406Z,17728
2016-09-30T10:38:44.632Z,17408
2016-09-30T10:39:47.060Z,17120
2016-09-30T10:40:45.349Z,16960
2016-09-30T10:41:46.053Z,17184
2016-09-30T10:42:45.402Z,17760
2016-09-30T10:43:44.611Z,18784
2016-09-30T10:44:45.598Z,19680
2016-09-30T10:45:45.667Z,20416
2016-09-30T10:46:45.022Z,20672
2016-09-30T10:47:46.024Z,20512
2016-09-30T10:48:45.574Z,19488
2016-09-30T10:49:45.806Z,16896
2016-09-30T10:50:45.041Z,18752
2016-09-30T10:51:45.397Z,20032
2016-09-30T10:52:45.267Z,21440
2016-09-30T10:53:45.694Z,22560
2016-09-30T10:54:45.833Z,23104
2016-09-30T10:55:46.223Z,23008
2016-09-30T10:56:45.648Z,23104
2016-09-30T10:57:46.948Z,23136
2016-09-30T10:58:45.961Z,23072
2016-09-30T10:59:45.350Z,23328
2016-09-30T11:00:45.031Z,22720
2016-09-30T11:01:46.350Z,22368
2016-09-30T11:02:45.405Z,22688
2016-09-30T11:03:46.153Z,23616
2016-09-30T11:04:45.664Z,24512
2016-09-30T11:05:45.161Z,24736
2016-09-30T11:06:45.763Z,25376
2016-09-30T11:07:47.850Z,25952
2016-09-30T11:08:45.748Z,25536
2016-09-30T11:09:45.898Z,26144
2016-09-30T11:10:46.794Z,25504
2016-09-30T11:11:45.502Z,25856
2016-09-30T11:12:46.278Z,26624
2016-09-30T11:13:46.256Z,27904
2016-09-30T11:15:46.862Z,25344
2016-09-30T11:16:46.204Z,25664
2016-09-30T11:17:47.808Z,25440
2016-09-30T11:18:46.759Z,24224
2016-09-30T11:19:46.014Z,21760
2016-09-30T11:20:46.680Z,23360
2016-09-30T11:21:46.295Z,22624
2016-09-30T11:22:46.075Z,24768
2016-09-30T11:23:45.943Z,21952
2016-09-30T11:24:46.651Z,21280
2016-09-30T11:25:46.150Z,22592
2016-09-30T11:26:46.141Z,21184
2016-09-30T11:27:47.061Z,22336
2016-09-30T11:28:45.695Z,24992
2016-09-30T11:29:47.936Z,21280
2016-09-30T11:30:46.789Z,19520
2016-09-30T11:31:47.714Z,20480
2016-09-30T11:32:48.243Z,23232
2016-09-30T11:33:47.118Z,24608
2016-09-30T11:34:46.556Z,23744
2016-09-30T11:35:47.570Z,23072
2016-09-30T11:36:46.982Z,22752
2016-09-30T11:37:47.266Z,20256
2016-09-30T11:38:46.597Z,19488
2016-09-30T11:39:47.564Z,19360
2016-09-30T11:40:46.334Z,19264
2016-09-30T11:41:46.513Z,19232
2016-09-30T11:42:47.742Z,19552
2016-09-30T11:43:47.871Z,18624
2016-09-30T11:44:48.103Z,19328
2016-09-30T11:45:48.353Z,22336
2016-09-30T11:46:47.831Z,22976
2016-09-30T11:47:48.887Z,22784
2016-09-30T11:48:47.426Z,22880
2016-09-30T11:49:47.905Z,21856
2016-09-30T11:50:46.625Z,20992
2016-09-30T11:51:47.980Z,20000
2016-09-30T11:52:47.802Z,19072
2016-09-30T11:53:46.591Z,18560
2016-09-30T11:54:46.836Z,18112
2016-09-30T11:55:47.139Z,17472
2016-09-30T11:56:48.040Z,17312
2016-09-30T11:57:47.492Z,17536
2016-09-30T11:58:47.722Z,17888
2016-09-30T11:59:47.792Z,18208
2016-09-30T12:00:48.440Z,18240
2016-09-30T12:01:48.684Z,18144
2016-09-30T12:02:47.782Z,17632
2016-09-30T12:03:47.926Z,17536
2016-09-30T12:04:47.781Z,17248
2016-09-30T12:05:48.800Z,17152
2016-09-30T12:06:47.814Z,17984
2016-09-30T12:07:47.896Z,19520
2016-09-30T12:08:47.571Z,22080
2016-09-30T12:09:49.725Z,22304
2016-09-30T12:10:48.388Z,21344
2016-09-30T12:11:49.344Z,19968
2016-09-30T12:12:47.977Z,19264
2016-09-30T12:13:50.272Z,19584
2016-09-30T12:14:48.140Z,20064
2016-09-30T12:15:48.307Z,20128
2016-09-30T12:16:48.200Z,20032
2016-09-30T12:17:48.381Z,19968
2016-09-30T12:18:48.404Z,20000
2016-09-30T12:19:48.315Z,19840
2016-09-30T12:20:48.541Z,19360
2016-09-30T12:21:47.731Z,18976
2016-09-30T12:22:48.701Z,18912
2016-09-30T12:23:47.938Z,17568
2016-09-30T12:24:48.139Z,15820
2016-09-30T12:25:48.296Z,15140
2016-09-30T12:26:49.012Z,15676
2016-09-30T12:27:48.252Z,16112
2016-09-30T12:28:49.401Z,15596
2016-09-30T12:29:48.719Z,14952
2016-09-30T12:30:47.561Z,14660
2016-09-30T12:31:48.112Z,15088
2016-09-30T12:32:48.430Z,15788
2016-09-30T12:33:49.585Z,17376
2016-09-30T12:34:49.617Z,19008
2016-09-30T12:35:47.517Z,19584
2016-09-30T12:36:49.133Z,19776
2016-09-30T12:37:50.572Z,19648
2016-09-30T12:38:48.690Z,18976
2016-09-30T12:39:49.323Z,18592
2016-09-30T12:40:48.084Z,18752
2016-09-30T12:41:48.636Z,19328
2016-09-30T12:42:48.757Z,20512
2016-09-30T12:43:50.333Z,21344
2016-09-30T12:44:49.221Z,22240
2016-09-30T12:45:48.481Z,23200
2016-09-30T12:46:48.974Z,23712
2016-09-30T12:47:49.403Z,23712
2016-09-30T12:48:48.879Z,24288
2016-09-30T12:49:48.351Z,25280
2016-09-30T12:50:49.543Z,23904
2016-09-30T12:51:49.173Z,22016
2016-09-30T12:52:48.088Z,20608
2016-09-30T12:53:51.208Z,19904
2016-09-30T12:54:49.225Z,18752
2016-09-30T12:55:48.733Z,18784
2016-09-30T12:56:49.169Z,19680
2016-09-30T12:57:48.291Z,19712
2016-09-30T12:58:48.999Z,17600
2016-09-30T12:59:49.454Z,20448
2016-09-30T13:00:48.764Z,18144
2016-09-30T13:01:48.596Z,16704
2016-09-30T13:02:48.511Z,15632
2016-09-30T13:03:50.189Z,14828
2016-09-30T13:04:49.175Z,14304
2016-09-30T13:05:50.030Z,13792
2016-09-30T13:06:50.393Z,13928
2016-09-30T13:07:49.080Z,14208
2016-09-30T13:08:48.513Z,14700
2016-09-30T13:09:50.712Z,13760
2016-09-30T13:10:50.590Z,12776
2016-09-30T13:11:49.838Z,12204
2016-09-30T13:12:50.238Z,12028
2016-09-30T13:13:50.309Z,12424
2016-09-30T13:14:49.078Z,11996
2016-09-30T13:15:49.413Z,11492
2016-09-30T13:16:50.202Z,11436
2016-09-30T13:17:49.747Z,11700
2016-09-30T13:18:48.855Z,12052
2016-09-30T13:19:49.269Z,12524
2016-09-30T13:20:50.865Z,13468
2016-09-30T13:21:48.848Z,13996
2016-09-30T13:22:50.709Z,13876
2016-09-30T13:23:49.149Z,13964
2016-09-30T13:24:49.082Z,14220
2016-09-30T13:25:50.595Z,14712
2016-09-30T13:26:50.085Z,15244
2016-09-30T13:27:50.673Z,16032
2016-09-30T13:28:51.372Z,16960
2016-09-30T13:29:50.500Z,16928
2016-09-30T13:30:51.175Z,16168
2016-09-30T13:31:51.245Z,15284
2016-09-30T13:32:50.250Z,14744
2016-09-30T13:33:50.014Z,16160
2016-09-30T13:34:50.558Z,18272
2016-09-30T13:35:50.435Z,18560
2016-09-30T13:36:51.132Z,19040
2016-09-30T13:37:51.037Z,20960